METAR Data
IDs: Format: Raw Decoded Include TAF

Data at: 2132 UTC 01 Oct 2022

EPWR 012100Z 23006KT 9999 FEW048 11/09 Q1009